MA16 weather

Marshall's Airport
Holden, Massachusetts, United States

Public forecast

Using degrees Fahrenheit for public forecast. Weather courtesy of forecast.io.

METAR (pilot weather report)

Closest report is Worcester Regional Airport, 6.2 nm (11.6 km) SSW. Retrieved 2019/07/20 16:54 UTC (12 minutes ago):

KORH 201654Z 27007KT 10SM FEW030 31/24 A2986 RMK AO2 SLP103 T03060244

TAF (pilot weather forecast)

Closest forecast is Worcester Regional Airport, 6.2 nm (11.6 km) SSW. Retrieved 2019/07/20 12:24 UTC (5 hours ago):

TAF KORH 201120Z 2012/2112 27012KT P6SM SCT200 FM201800 26010KT P6SM FEW250 FM211000 26006KT P6SM SCT150